sensor_id;sensor_type;location;lat;lon;timestamp;temperature;humidity
16441;DHT22;8330;-33.858;151.184;2022-11-15T00:01:17;24.70;99.90
16441;DHT22;8330;-33.858;151.184;2022-11-15T00:03:52;24.70;99.90
16441;DHT22;8330;-33.858;151.184;2022-11-15T00:06:23;24.70;99.90
16441;DHT22;8330;-33.858;151.184;2022-11-15T00:08:53;24.60;99.90
16441;DHT22;8330;-33.858;151.184;2022-11-15T00:11:24;24.50;99.90
16441;DHT22;8330;-33.858;151.184;2022-11-15T00:13:57;24.40;99.90
16441;DHT22;8330;-33.858;151.184;2022-11-15T00:16:30;24.00;99.90
16441;DHT22;8330;-33.858;151.184;2022-11-15T00:19:03;23.90;99.90
16441;DHT22;8330;-33.858;151.184;2022-11-15T00:21:34;23.80;99.90
16441;DHT22;8330;-33.858;151.184;2022-11-15T00:24:05;23.80;99.90
16441;DHT22;8330;-33.858;151.184;2022-11-15T00:26:36;23.80;99.90
16441;DHT22;8330;-33.858;151.184;2022-11-15T00:29:07;23.90;99.90
16441;DHT22;8330;-33.858;151.184;2022-11-15T00:31:39;24.00;99.90
16441;DHT22;8330;-33.858;151.184;2022-11-15T00:34:12;24.10;99.90
16441;DHT22;8330;-33.858;151.184;2022-11-15T00:36:43;24.30;99.90
16441;DHT22;8330;-33.858;151.184;2022-11-15T00:39:14;24.20;99.90
16441;DHT22;8330;-33.858;151.184;2022-11-15T00:41:45;24.20;99.90
16441;DHT22;8330;-33.858;151.184;2022-11-15T00:44:16;24.00;99.90
16441;DHT22;8330;-33.858;151.184;2022-11-15T00:46:47;24.00;99.90
16441;DHT22;8330;-33.858;151.184;2022-11-15T00:49:19;23.90;99.90
16441;DHT22;8330;-33.858;151.184;2022-11-15T00:51:50;23.90;99.90
16441;DHT22;8330;-33.858;151.184;2022-11-15T00:54:22;23.80;99.90
16441;DHT22;8330;-33.858;151.184;2022-11-15T00:56:53;23.60;99.90
16441;DHT22;8330;-33.858;151.184;2022-11-15T00:59:25;23.60;99.90
16441;DHT22;8330;-33.858;151.184;2022-11-15T01:01:56;23.60;99.90
16441;DHT22;8330;-33.858;151.184;2022-11-15T01:04:29;23.60;99.90
16441;DHT22;8330;-33.858;151.184;2022-11-15T01:07:00;23.70;99.90
16441;DHT22;8330;-33.858;151.184;2022-11-15T01:09:31;23.60;99.90
16441;DHT22;8330;-33.858;151.184;2022-11-15T01:12:02;23.60;99.90
16441;DHT22;8330;-33.858;151.184;2022-11-15T01:14:33;23.50;99.90
16441;DHT22;8330;-33.858;151.184;2022-11-15T01:17:03;23.50;99.90
16441;DHT22;8330;-33.858;151.184;2022-11-15T01:19:38;23.50;99.90
16441;DHT22;8330;-33.858;151.184;2022-11-15T01:22:09;23.70;99.90
16441;DHT22;8330;-33.858;151.184;2022-11-15T01:24:40;23.90;99.90
16441;DHT22;8330;-33.858;151.184;2022-11-15T01:27:10;24.10;99.90
16441;DHT22;8330;-33.858;151.184;2022-11-15T01:29:41;24.20;99.90
16441;DHT22;8330;-33.858;151.184;2022-11-15T01:32:13;24.20;99.90
16441;DHT22;8330;-33.858;151.184;2022-11-15T01:34:47;24.10;99.90
16441;DHT22;8330;-33.858;151.184;2022-11-15T01:37:17;24.00;99.90
16441;DHT22;8330;-33.858;151.184;2022-11-15T01:39:48;24.00;99.90
16441;DHT22;8330;-33.858;151.184;2022-11-15T01:42:19;24.00;99.90
16441;DHT22;8330;-33.858;151.184;2022-11-15T01:44:50;24.20;99.90
16441;DHT22;8330;-33.858;151.184;2022-11-15T01:47:25;24.40;99.90
16441;DHT22;8330;-33.858;151.184;2022-11-15T01:50:01;24.70;99.90
16441;DHT22;8330;-33.858;151.184;2022-11-15T01:52:33;24.80;99.90
16441;DHT22;8330;-33.858;151.184;2022-11-15T01:55:07;24.90;99.90
16441;DHT22;8330;-33.858;151.184;2022-11-15T01:57:39;25.00;99.90
16441;DHT22;8330;-33.858;151.184;2022-11-15T02:00:12;25.10;99.90
16441;DHT22;8330;-33.858;151.184;2022-11-15T02:02:44;25.10;99.90
16441;DHT22;8330;-33.858;151.184;2022-11-15T02:05:17;25.10;99.90
16441;DHT22;8330;-33.858;151.184;2022-11-15T02:07:49;25.20;99.90
16441;DHT22;8330;-33.858;151.184;2022-11-15T02:10:22;25.10;99.90
16441;DHT22;8330;-33.858;151.184;2022-11-15T02:12:54;25.10;99.90
16441;DHT22;8330;-33.858;151.184;2022-11-15T02:15:29;25.00;99.90
16441;DHT22;8330;-33.858;151.184;2022-11-15T02:18:09;24.90;99.90
16441;DHT22;8330;-33.858;151.184;2022-11-15T02:20:53;24.70;99.90
16441;DHT22;8330;-33.858;151.184;2022-11-15T02:23:56;24.60;99.90
16441;DHT22;8330;-33.858;151.184;2022-11-15T02:27:06;24.90;99.90
16441;DHT22;8330;-33.858;151.184;2022-11-15T02:30:16;25.10;99.90
16441;DHT22;8330;-33.858;151.184;2022-11-15T02:32:52;25.20;99.90
16441;DHT22;8330;-33.858;151.184;2022-11-15T02:35:32;25.40;99.90
16441;DHT22;8330;-33.858;151.184;2022-11-15T02:38:11;25.50;99.90
16441;DHT22;8330;-33.858;151.184;2022-11-15T02:40:52;25.80;99.90
16441;DHT22;8330;-33.858;151.184;2022-11-15T02:43:27;25.90;99.90
16441;DHT22;8330;-33.858;151.184;2022-11-15T02:46:21;26.10;99.90
16441;DHT22;8330;-33.858;151.184;2022-11-15T02:49:15;26.30;99.90
16441;DHT22;8330;-33.858;151.184;2022-11-15T02:51:48;26.20;99.90
16441;DHT22;8330;-33.858;151.184;2022-11-15T02:54:22;26.30;99.90
16441;DHT22;8330;-33.858;151.184;2022-11-15T02:56:55;26.40;99.90
16441;DHT22;8330;-33.858;151.184;2022-11-15T03:00:01;26.40;99.90
16441;DHT22;8330;-33.858;151.184;2022-11-15T03:03:03;26.80;99.90
16441;DHT22;8330;-33.858;151.184;2022-11-15T03:05:41;26.80;99.90
16441;DHT22;8330;-33.858;151.184;2022-11-15T03:08:20;26.80;99.90
16441;DHT22;8330;-33.858;151.184;2022-11-15T03:11:00;26.70;99.90
16441;DHT22;8330;-33.858;151.184;2022-11-15T03:13:37;26.40;99.90
16441;DHT22;8330;-33.858;151.184;2022-11-15T03:16:11;26.10;99.90
16441;DHT22;8330;-33.858;151.184;2022-11-15T03:18:50;25.80;99.90
16441;DHT22;8330;-33.858;151.184;2022-11-15T03:21:23;25.80;99.90
16441;DHT22;8330;-33.858;151.184;2022-11-15T03:23:55;26.10;99.90
16441;DHT22;8330;-33.858;151.184;2022-11-15T03:26:29;26.10;99.90
16441;DHT22;8330;-33.858;151.184;2022-11-15T03:29:03;26.00;99.90
16441;DHT22;8330;-33.858;151.184;2022-11-15T03:31:38;26.10;99.90
16441;DHT22;8330;-33.858;151.184;2022-11-15T03:34:27;26.00;99.90
16441;DHT22;8330;-33.858;151.184;2022-11-15T03:36:59;26.20;99.90
16441;DHT22;8330;-33.858;151.184;2022-11-15T03:39:30;26.10;99.90
16441;DHT22;8330;-33.858;151.184;2022-11-15T03:42:08;26.20;99.90
16441;DHT22;8330;-33.858;151.184;2022-11-15T03:44:47;25.90;99.90
16441;DHT22;8330;-33.858;151.184;2022-11-15T03:47:25;25.80;99.90
16441;DHT22;8330;-33.858;151.184;2022-11-15T03:50:03;26.00;99.90
16441;DHT22;8330;-33.858;151.184;2022-11-15T03:52:35;25.70;99.90
16441;DHT22;8330;-33.858;151.184;2022-11-15T03:55:10;25.30;99.90
16441;DHT22;8330;-33.858;151.184;2022-11-15T03:57:41;25.10;99.90
16441;DHT22;8330;-33.858;151.184;2022-11-15T04:00:13;24.90;99.90
16441;DHT22;8330;-33.858;151.184;2022-11-15T04:02:43;24.60;99.90
16441;DHT22;8330;-33.858;151.184;2022-11-15T04:05:16;24.60;99.90
16441;DHT22;8330;-33.858;151.184;2022-11-15T04:07:47;24.80;99.90
16441;DHT22;8330;-33.858;151.184;2022-11-15T04:10:19;24.60;99.90
16441;DHT22;8330;-33.858;151.184;2022-11-15T04:12:50;24.70;99.90
16441;DHT22;8330;-33.858;151.184;2022-11-15T04:15:22;24.90;99.90
16441;DHT22;8330;-33.858;151.184;2022-11-15T04:17:55;24.80;99.90
16441;DHT22;8330;-33.858;151.184;2022-11-15T04:20:29;24.50;99.90
16441;DHT22;8330;-33.858;151.184;2022-11-15T04:23:16;24.30;99.90
16441;DHT22;8330;-33.858;151.184;2022-11-15T04:26:04;24.20;99.90
16441;DHT22;8330;-33.858;151.184;2022-11-15T04:28:35;24.20;99.90
16441;DHT22;8330;-33.858;151.184;2022-11-15T04:31:27;24.10;99.90
16441;DHT22;8330;-33.858;151.184;2022-11-15T04:33:58;24.00;99.90
16441;DHT22;8330;-33.858;151.184;2022-11-15T04:36:31;23.80;99.90
16441;DHT22;8330;-33.858;151.184;2022-11-15T04:39:18;24.00;99.90
16441;DHT22;8330;-33.858;151.184;2022-11-15T04:41:49;24.50;99.90
16441;DHT22;8330;-33.858;151.184;2022-11-15T04:44:20;24.60;99.90
16441;DHT22;8330;-33.858;151.184;2022-11-15T04:46:50;24.40;99.90
16441;DHT22;8330;-33.858;151.184;2022-11-15T04:49:22;24.30;99.90
16441;DHT22;8330;-33.858;151.184;2022-11-15T04:51:54;24.10;99.90
16441;DHT22;8330;-33.858;151.184;2022-11-15T04:54:25;23.90;99.90
16441;DHT22;8330;-33.858;151.184;2022-11-15T04:56:56;24.30;99.90
16441;DHT22;8330;-33.858;151.184;2022-11-15T04:59:27;24.60;99.90
16441;DHT22;8330;-33.858;151.184;2022-11-15T05:01:57;25.10;99.90
16441;DHT22;8330;-33.858;151.184;2022-11-15T05:04:28;25.60;99.90
16441;DHT22;8330;-33.858;151.184;2022-11-15T05:06:59;25.50;99.90
16441;DHT22;8330;-33.858;151.184;2022-11-15T05:09:31;25.10;99.90
16441;DHT22;8330;-33.858;151.184;2022-11-15T05:12:02;24.80;99.90
16441;DHT22;8330;-33.858;151.184;2022-11-15T05:14:33;24.70;99.90
16441;DHT22;8330;-33.858;151.184;2022-11-15T05:17:04;24.30;99.90
16441;DHT22;8330;-33.858;151.184;2022-11-15T05:19:35;24.00;99.90
16441;DHT22;8330;-33.858;151.184;2022-11-15T05:22:08;24.10;99.90
16441;DHT22;8330;-33.858;151.184;2022-11-15T05:24:38;24.00;99.90
16441;DHT22;8330;-33.858;151.184;2022-11-15T05:27:09;24.00;99.90
16441;DHT22;8330;-33.858;151.184;2022-11-15T05:29:40;24.60;99.90
16441;DHT22;8330;-33.858;151.184;2022-11-15T05:32:12;25.00;99.90
16441;DHT22;8330;-33.858;151.184;2022-11-15T05:34:44;25.30;99.90
16441;DHT22;8330;-33.858;151.184;2022-11-15T05:37:19;25.30;99.90
16441;DHT22;8330;-33.858;151.184;2022-11-15T05:39:49;24.90;99.90
16441;DHT22;8330;-33.858;151.184;2022-11-15T05:42:20;25.20;99.90
16441;DHT22;8330;-33.858;151.184;2022-11-15T05:44:51;25.00;99.90
16441;DHT22;8330;-33.858;151.184;2022-11-15T05:47:23;25.20;99.90
16441;DHT22;8330;-33.858;151.184;2022-11-15T05:49:55;25.20;99.90
16441;DHT22;8330;-33.858;151.184;2022-11-15T05:52:33;25.00;99.90
16441;DHT22;8330;-33.858;151.184;2022-11-15T05:55:07;24.70;99.90
16441;DHT22;8330;-33.858;151.184;2022-11-15T05:57:38;25.00;99.90
16441;DHT22;8330;-33.858;151.184;2022-11-15T06:00:10;24.90;99.90
16441;DHT22;8330;-33.858;151.184;2022-11-15T06:02:40;24.80;99.90
16441;DHT22;8330;-33.858;151.184;2022-11-15T06:05:11;24.60;99.90
16441;DHT22;8330;-33.858;151.184;2022-11-15T06:07:44;24.50;99.90
16441;DHT22;8330;-33.858;151.184;2022-11-15T06:10:15;24.20;99.90
16441;DHT22;8330;-33.858;151.184;2022-11-15T06:12:45;24.10;99.90
16441;DHT22;8330;-33.858;151.184;2022-11-15T06:15:16;24.00;99.90
16441;DHT22;8330;-33.858;151.184;2022-11-15T06:17:47;24.00;99.90
16441;DHT22;8330;-33.858;151.184;2022-11-15T06:20:18;24.30;99.90
16441;DHT22;8330;-33.858;151.184;2022-11-15T06:22:51;24.60;99.90
16441;DHT22;8330;-33.858;151.184;2022-11-15T06:25:29;24.40;99.90
16441;DHT22;8330;-33.858;151.184;2022-11-15T06:28:00;24.40;99.90
16441;DHT22;8330;-33.858;151.184;2022-11-15T06:30:31;24.90;99.90
16441;DHT22;8330;-33.858;151.184;2022-11-15T06:33:03;25.30;99.90
16441;DHT22;8330;-33.858;151.184;2022-11-15T06:35:36;25.50;99.90
16441;DHT22;8330;-33.858;151.184;2022-11-15T06:38:10;25.90;99.90
16441;DHT22;8330;-33.858;151.184;2022-11-15T06:40:41;26.20;99.90
16441;DHT22;8330;-33.858;151.184;2022-11-15T06:43:12;26.60;99.90
16441;DHT22;8330;-33.858;151.184;2022-11-15T06:45:43;26.20;99.90
16441;DHT22;8330;-33.858;151.184;2022-11-15T06:48:15;25.70;99.90
16441;DHT22;8330;-33.858;151.184;2022-11-15T06:50:51;25.20;99.90
16441;DHT22;8330;-33.858;151.184;2022-11-15T06:53:25;24.60;99.90
16441;DHT22;8330;-33.858;151.184;2022-11-15T06:56:00;24.30;99.90
16441;DHT22;8330;-33.858;151.184;2022-11-15T06:58:31;23.90;99.90
16441;DHT22;8330;-33.858;151.184;2022-11-15T07:01:02;23.80;99.90
16441;DHT22;8330;-33.858;151.184;2022-11-15T07:03:36;23.60;99.90
16441;DHT22;8330;-33.858;151.184;2022-11-15T07:06:08;23.50;99.90
16441;DHT22;8330;-33.858;151.184;2022-11-15T07:08:41;23.40;99.90
16441;DHT22;8330;-33.858;151.184;2022-11-15T07:11:13;23.30;99.90
16441;DHT22;8330;-33.858;151.184;2022-11-15T07:13:44;23.30;99.90
16441;DHT22;8330;-33.858;151.184;2022-11-15T07:16:14;23.20;99.90
16441;DHT22;8330;-33.858;151.184;2022-11-15T07:18:45;23.10;99.90
16441;DHT22;8330;-33.858;151.184;2022-11-15T07:21:16;23.10;99.90
16441;DHT22;8330;-33.858;151.184;2022-11-15T07:23:49;23.10;99.90
16441;DHT22;8330;-33.858;151.184;2022-11-15T07:26:19;23.10;99.90
16441;DHT22;8330;-33.858;151.184;2022-11-15T07:28:50;23.00;99.90
16441;DHT22;8330;-33.858;151.184;2022-11-15T07:31:21;23.00;99.90
16441;DHT22;8330;-33.858;151.184;2022-11-15T07:33:53;22.90;99.90
16441;DHT22;8330;-33.858;151.184;2022-11-15T07:36:24;22.80;99.90
16441;DHT22;8330;-33.858;151.184;2022-11-15T07:38:56;22.80;99.90
16441;DHT22;8330;-33.858;151.184;2022-11-15T07:41:27;22.70;99.90
16441;DHT22;8330;-33.858;151.184;2022-11-15T07:43:59;22.70;99.90
16441;DHT22;8330;-33.858;151.184;2022-11-15T07:46:30;22.80;99.90
16441;DHT22;8330;-33.858;151.184;2022-11-15T07:49:01;22.60;99.90
16441;DHT22;8330;-33.858;151.184;2022-11-15T07:51:32;22.60;99.90
16441;DHT22;8330;-33.858;151.184;2022-11-15T07:54:05;22.40;99.90
16441;DHT22;8330;-33.858;151.184;2022-11-15T07:56:36;22.40;99.90
16441;DHT22;8330;-33.858;151.184;2022-11-15T07:59:07;22.30;99.90
16441;DHT22;8330;-33.858;151.184;2022-11-15T08:01:37;22.20;99.90
16441;DHT22;8330;-33.858;151.184;2022-11-15T08:04:10;22.20;99.90
16441;DHT22;8330;-33.858;151.184;2022-11-15T08:06:41;22.10;99.90
16441;DHT22;8330;-33.858;151.184;2022-11-15T08:09:13;22.10;99.90
16441;DHT22;8330;-33.858;151.184;2022-11-15T08:11:44;22.00;99.90
16441;DHT22;8330;-33.858;151.184;2022-11-15T08:14:15;21.90;99.90
16441;DHT22;8330;-33.858;151.184;2022-11-15T08:16:46;21.80;99.90
16441;DHT22;8330;-33.858;151.184;2022-11-15T08:19:17;21.70;99.90
16441;DHT22;8330;-33.858;151.184;2022-11-15T08:21:47;21.70;99.90
16441;DHT22;8330;-33.858;151.184;2022-11-15T08:24:23;21.60;99.90
16441;DHT22;8330;-33.858;151.184;2022-11-15T08:26:53;21.60;99.90
16441;DHT22;8330;-33.858;151.184;2022-11-15T08:29:24;21.50;99.90
16441;DHT22;8330;-33.858;151.184;2022-11-15T08:31:56;21.40;99.90
16441;DHT22;8330;-33.858;151.184;2022-11-15T08:34:27;21.40;99.90
16441;DHT22;8330;-33.858;151.184;2022-11-15T08:36:58;21.40;99.90
16441;DHT22;8330;-33.858;151.184;2022-11-15T08:39:31;21.40;99.90
16441;DHT22;8330;-33.858;151.184;2022-11-15T08:42:02;21.50;99.90
16441;DHT22;8330;-33.858;151.184;2022-11-15T08:44:34;21.40;99.90
16441;DHT22;8330;-33.858;151.184;2022-11-15T08:47:05;21.50;99.90
16441;DHT22;8330;-33.858;151.184;2022-11-15T08:49:36;21.40;99.90
16441;DHT22;8330;-33.858;151.184;2022-11-15T08:52:07;21.50;99.90
16441;DHT22;8330;-33.858;151.184;2022-11-15T08:54:39;21.50;99.90
16441;DHT22;8330;-33.858;151.184;2022-11-15T08:57:10;21.50;99.90
16441;DHT22;8330;-33.858;151.184;2022-11-15T08:59:41;21.50;99.90
16441;DHT22;8330;-33.858;151.184;2022-11-15T09:02:13;21.50;99.90
16441;DHT22;8330;-33.858;151.184;2022-11-15T09:04:44;21.50;99.90
16441;DHT22;8330;-33.858;151.184;2022-11-15T09:07:15;21.40;99.90
16441;DHT22;8330;-33.858;151.184;2022-11-15T09:09:49;21.30;99.90
16441;DHT22;8330;-33.858;151.184;2022-11-15T09:12:20;21.30;99.90
16441;DHT22;8330;-33.858;151.184;2022-11-15T09:14:51;21.20;99.90
16441;DHT22;8330;-33.858;151.184;2022-11-15T09:17:22;21.20;99.90
16441;DHT22;8330;-33.858;151.184;2022-11-15T09:19:53;21.20;99.90
16441;DHT22;8330;-33.858;151.184;2022-11-15T09:22:24;21.20;99.90
16441;DHT22;8330;-33.858;151.184;2022-11-15T09:24:57;21.20;99.90
16441;DHT22;8330;-33.858;151.184;2022-11-15T09:27:30;21.20;99.90
16441;DHT22;8330;-33.858;151.184;2022-11-15T09:30:01;21.10;99.90
16441;DHT22;8330;-33.858;151.184;2022-11-15T09:32:32;21.10;99.90
16441;DHT22;8330;-33.858;151.184;2022-11-15T09:35:03;21.10;99.90
16441;DHT22;8330;-33.858;151.184;2022-11-15T09:37:38;21.10;99.90
16441;DHT22;8330;-33.858;151.184;2022-11-15T09:40:14;21.10;99.90
16441;DHT22;8330;-33.858;151.184;2022-11-15T09:43:00;21.10;99.90
16441;DHT22;8330;-33.858;151.184;2022-11-15T09:45:55;21.00;99.90
16441;DHT22;8330;-33.858;151.184;2022-11-15T09:48:48;21.00;99.90
16441;DHT22;8330;-33.858;151.184;2022-11-15T09:51:32;21.00;99.90
16441;DHT22;8330;-33.858;151.184;2022-11-15T09:54:26;21.00;99.90
16441;DHT22;8330;-33.858;151.184;2022-11-15T09:57:09;21.00;99.90
16441;DHT22;8330;-33.858;151.184;2022-11-15T10:00:00;20.90;99.90
16441;DHT22;8330;-33.858;151.184;2022-11-15T10:02:50;20.90;99.90
16441;DHT22;8330;-33.858;151.184;2022-11-15T10:05:37;20.90;99.90
16441;DHT22;8330;-33.858;151.184;2022-11-15T10:11:09;20.60;99.90
16441;DHT22;8330;-33.858;151.184;2022-11-15T10:13:47;20.70;99.90
16441;DHT22;8330;-33.858;151.184;2022-11-15T10:16:52;20.70;99.90
16441;DHT22;8330;-33.858;151.184;2022-11-15T10:19:35;20.70;99.90
16441;DHT22;8330;-33.858;151.184;2022-11-15T10:22:28;20.70;99.90
16441;DHT22;8330;-33.858;151.184;2022-11-15T10:25:29;20.70;99.90
16441;DHT22;8330;-33.858;151.184;2022-11-15T10:28:06;20.70;99.90
16441;DHT22;8330;-33.858;151.184;2022-11-15T10:30:53;20.70;99.90
16441;DHT22;8330;-33.858;151.184;2022-11-15T10:33:29;20.70;99.90
16441;DHT22;8330;-33.858;151.184;2022-11-15T10:36:25;20.70;99.90
16441;DHT22;8330;-33.858;151.184;2022-11-15T10:39:04;20.70;99.90
16441;DHT22;8330;-33.858;151.184;2022-11-15T10:41:41;20.70;99.90
16441;DHT22;8330;-33.858;151.184;2022-11-15T10:44:25;20.60;99.90
16441;DHT22;8330;-33.858;151.184;2022-11-15T10:47:24;20.60;99.90
16441;DHT22;8330;-33.858;151.184;2022-11-15T10:50:04;20.60;99.90
16441;DHT22;8330;-33.858;151.184;2022-11-15T10:52:38;20.60;99.90
16441;DHT22;8330;-33.858;151.184;2022-11-15T10:55:27;20.50;99.90
16441;DHT22;8330;-33.858;151.184;2022-11-15T10:58:02;20.50;99.90
16441;DHT22;8330;-33.858;151.184;2022-11-15T11:00:37;20.50;99.90
16441;DHT22;8330;-33.858;151.184;2022-11-15T11:03:37;20.40;99.90
16441;DHT22;8330;-33.858;151.184;2022-11-15T11:06:32;20.30;99.90
16441;DHT22;8330;-33.858;151.184;2022-11-15T11:09:30;20.10;99.90
16441;DHT22;8330;-33.858;151.184;2022-11-15T11:12:06;20.20;99.90
16441;DHT22;8330;-33.858;151.184;2022-11-15T11:14:40;20.30;99.90
16441;DHT22;8330;-33.858;151.184;2022-11-15T11:17:16;20.20;99.90
16441;DHT22;8330;-33.858;151.184;2022-11-15T11:20:00;20.10;99.90
16441;DHT22;8330;-33.858;151.184;2022-11-15T11:22:38;20.00;99.90
16441;DHT22;8330;-33.858;151.184;2022-11-15T11:25:22;19.80;99.90
16441;DHT22;8330;-33.858;151.184;2022-11-15T11:31:06;19.50;99.90
16441;DHT22;8330;-33.858;151.184;2022-11-15T11:33:46;19.40;99.90
16441;DHT22;8330;-33.858;151.184;2022-11-15T11:36:25;19.30;99.90
16441;DHT22;8330;-33.858;151.184;2022-11-15T11:39:05;19.30;99.90
16441;DHT22;8330;-33.858;151.184;2022-11-15T11:41:56;19.20;99.90
16441;DHT22;8330;-33.858;151.184;2022-11-15T11:44:39;19.20;99.90
16441;DHT22;8330;-33.858;151.184;2022-11-15T11:47:12;19.20;99.90
16441;DHT22;8330;-33.858;151.184;2022-11-15T11:49:49;19.20;99.90
16441;DHT22;8330;-33.858;151.184;2022-11-15T11:52:26;19.10;99.90
16441;DHT22;8330;-33.858;151.184;2022-11-15T11:55:03;19.20;99.90
16441;DHT22;8330;-33.858;151.184;2022-11-15T11:57:43;19.20;99.90
16441;DHT22;8330;-33.858;151.184;2022-11-15T12:00:19;19.20;99.90
16441;DHT22;8330;-33.858;151.184;2022-11-15T12:03:02;19.20;99.90
16441;DHT22;8330;-33.858;151.184;2022-11-15T12:05:43;19.10;99.90
16441;DHT22;8330;-33.858;151.184;2022-11-15T12:08:50;19.20;99.90
16441;DHT22;8330;-33.858;151.184;2022-11-15T12:11:28;19.30;99.90
16441;DHT22;8330;-33.858;151.184;2022-11-15T12:14:01;19.20;99.90
16441;DHT22;8330;-33.858;151.184;2022-11-15T12:16:34;19.20;99.90
16441;DHT22;8330;-33.858;151.184;2022-11-15T12:19:07;19.10;99.90
16441;DHT22;8330;-33.858;151.184;2022-11-15T12:21:43;19.00;99.90
16441;DHT22;8330;-33.858;151.184;2022-11-15T12:24:20;18.90;99.90
16441;DHT22;8330;-33.858;151.184;2022-11-15T12:26:54;18.90;99.90
16441;DHT22;8330;-33.858;151.184;2022-11-15T12:29:32;18.80;99.90
16441;DHT22;8330;-33.858;151.184;2022-11-15T12:32:05;18.80;99.90
16441;DHT22;8330;-33.858;151.184;2022-11-15T12:34:46;18.80;99.90
16441;DHT22;8330;-33.858;151.184;2022-11-15T12:37:48;18.70;99.90
16441;DHT22;8330;-33.858;151.184;2022-11-15T12:40:32;18.70;99.90
16441;DHT22;8330;-33.858;151.184;2022-11-15T12:45:51;18.60;99.90
16441;DHT22;8330;-33.858;151.184;2022-11-15T12:48:46;18.50;99.90
16441;DHT22;8330;-33.858;151.184;2022-11-15T12:51:19;18.60;99.90
16441;DHT22;8330;-33.858;151.184;2022-11-15T12:53:50;18.50;99.90
16441;DHT22;8330;-33.858;151.184;2022-11-15T12:56:24;18.50;99.90
16441;DHT22;8330;-33.858;151.184;2022-11-15T12:58:56;18.60;99.90
16441;DHT22;8330;-33.858;151.184;2022-11-15T13:01:58;18.60;99.90
16441;DHT22;8330;-33.858;151.184;2022-11-15T13:04:30;18.60;99.90
16441;DHT22;8330;-33.858;151.184;2022-11-15T13:07:03;18.50;99.90
16441;DHT22;8330;-33.858;151.184;2022-11-15T13:09:53;18.40;99.90
16441;DHT22;8330;-33.858;151.184;2022-11-15T13:12:56;18.40;99.90
16441;DHT22;8330;-33.858;151.184;2022-11-15T13:15:59;18.30;99.90
16441;DHT22;8330;-33.858;151.184;2022-11-15T13:18:33;18.20;99.90
16441;DHT22;8330;-33.858;151.184;2022-11-15T13:21:17;18.30;99.90
16441;DHT22;8330;-33.858;151.184;2022-11-15T13:24:04;18.30;99.90
16441;DHT22;8330;-33.858;151.184;2022-11-15T13:26:35;18.30;99.90
16441;DHT22;8330;-33.858;151.184;2022-11-15T13:29:18;18.30;99.90
16441;DHT22;8330;-33.858;151.184;2022-11-15T13:31:49;18.40;99.90
16441;DHT22;8330;-33.858;151.184;2022-11-15T13:34:26;18.30;99.90
16441;DHT22;8330;-33.858;151.184;2022-11-15T13:36:58;18.30;99.90
16441;DHT22;8330;-33.858;151.184;2022-11-15T13:39:30;18.10;99.90
16441;DHT22;8330;-33.858;151.184;2022-11-15T13:42:01;18.00;99.90
16441;DHT22;8330;-33.858;151.184;2022-11-15T13:44:34;18.10;99.90
16441;DHT22;8330;-33.858;151.184;2022-11-15T13:47:06;18.10;99.90
16441;DHT22;8330;-33.858;151.184;2022-11-15T13:49:37;17.90;99.90
16441;DHT22;8330;-33.858;151.184;2022-11-15T13:52:10;17.90;99.90
16441;DHT22;8330;-33.858;151.184;2022-11-15T13:54:44;18.00;99.90
16441;DHT22;8330;-33.858;151.184;2022-11-15T13:57:18;17.90;99.90
16441;DHT22;8330;-33.858;151.184;2022-11-15T13:59:54;17.90;99.90
16441;DHT22;8330;-33.858;151.184;2022-11-15T14:02:28;17.90;99.90
16441;DHT22;8330;-33.858;151.184;2022-11-15T14:05:05;17.90;99.90
16441;DHT22;8330;-33.858;151.184;2022-11-15T14:07:54;17.90;99.90
16441;DHT22;8330;-33.858;151.184;2022-11-15T14:10:29;17.90;99.90
16441;DHT22;8330;-33.858;151.184;2022-11-15T14:13:00;18.00;99.90
16441;DHT22;8330;-33.858;151.184;2022-11-15T14:15:35;17.90;99.90
16441;DHT22;8330;-33.858;151.184;2022-11-15T14:18:16;17.90;99.90
16441;DHT22;8330;-33.858;151.184;2022-11-15T14:21:07;17.80;99.90
16441;DHT22;8330;-33.858;151.184;2022-11-15T14:23:38;17.80;99.90
16441;DHT22;8330;-33.858;151.184;2022-11-15T14:26:27;17.70;99.90
16441;DHT22;8330;-33.858;151.184;2022-11-15T14:29:22;17.70;99.90
16441;DHT22;8330;-33.858;151.184;2022-11-15T14:32:11;17.60;99.90
16441;DHT22;8330;-33.858;151.184;2022-11-15T14:34:42;17.60;99.90
16441;DHT22;8330;-33.858;151.184;2022-11-15T14:37:21;17.60;99.90
16441;DHT22;8330;-33.858;151.184;2022-11-15T14:39:52;17.60;99.90
16441;DHT22;8330;-33.858;151.184;2022-11-15T14:42:24;17.60;99.90
16441;DHT22;8330;-33.858;151.184;2022-11-15T14:44:54;17.70;99.90
16441;DHT22;8330;-33.858;151.184;2022-11-15T14:47:27;17.80;99.90
16441;DHT22;8330;-33.858;151.184;2022-11-15T14:49:58;17.70;99.90
16441;DHT22;8330;-33.858;151.184;2022-11-15T14:52:29;17.70;99.90
16441;DHT22;8330;-33.858;151.184;2022-11-15T14:55:02;17.70;99.90
16441;DHT22;8330;-33.858;151.184;2022-11-15T14:57:33;17.60;99.90
16441;DHT22;8330;-33.858;151.184;2022-11-15T15:00:06;17.70;99.90
16441;DHT22;8330;-33.858;151.184;2022-11-15T15:02:40;17.60;99.90
16441;DHT22;8330;-33.858;151.184;2022-11-15T15:05:16;17.50;99.90
16441;DHT22;8330;-33.858;151.184;2022-11-15T15:07:47;17.40;99.90
16441;DHT22;8330;-33.858;151.184;2022-11-15T15:10:19;17.40;99.90
16441;DHT22;8330;-33.858;151.184;2022-11-15T15:12:50;17.40;99.90
16441;DHT22;8330;-33.858;151.184;2022-11-15T15:15:23;17.30;99.90
16441;DHT22;8330;-33.858;151.184;2022-11-15T15:17:56;17.10;99.90
16441;DHT22;8330;-33.858;151.184;2022-11-15T15:20:27;17.10;99.90
16441;DHT22;8330;-33.858;151.184;2022-11-15T15:22:58;17.10;99.90
16441;DHT22;8330;-33.858;151.184;2022-11-15T15:25:30;17.10;99.90
16441;DHT22;8330;-33.858;151.184;2022-11-15T15:28:02;17.10;99.90
16441;DHT22;8330;-33.858;151.184;2022-11-15T15:30:35;17.30;99.90
16441;DHT22;8330;-33.858;151.184;2022-11-15T15:33:08;17.30;99.90
16441;DHT22;8330;-33.858;151.184;2022-11-15T15:35:39;17.30;99.90
16441;DHT22;8330;-33.858;151.184;2022-11-15T15:38:12;17.20;99.90
16441;DHT22;8330;-33.858;151.184;2022-11-15T15:40:43;17.10;99.90
16441;DHT22;8330;-33.858;151.184;2022-11-15T15:43:14;17.20;99.90
16441;DHT22;8330;-33.858;151.184;2022-11-15T15:45:46;17.20;99.90
16441;DHT22;8330;-33.858;151.184;2022-11-15T15:48:18;17.20;99.90
16441;DHT22;8330;-33.858;151.184;2022-11-15T15:50:49;17.20;99.90
16441;DHT22;8330;-33.858;151.184;2022-11-15T15:53:21;17.20;99.90
16441;DHT22;8330;-33.858;151.184;2022-11-15T15:55:51;17.10;99.90
16441;DHT22;8330;-33.858;151.184;2022-11-15T15:58:22;17.10;99.90
16441;DHT22;8330;-33.858;151.184;2022-11-15T16:00:53;17.20;99.90
16441;DHT22;8330;-33.858;151.184;2022-11-15T16:03:26;17.20;99.90